KOCW/OCW METAR and TAF weather

Enter ICAO airport designator
Station Type Date Time Source
KOCW METAR 2022/01/29 11:15 UTC NOAA

KOCW 291115Z AUTO 33015G25KT 7SM -SN BKN016 OVC023 01/M02 A2976 RMK AO2 T00051023


Station Type Date Time Source
KOCW Decoded METAR 2022/01/29 11:15 UTC NOAA

Washington, Warren Field Airport, NC, United States (KOCW) 35-34-14N 077-02-59W
Jan 29, 2022 - 06:15 AM EST / 2022.01.29 1115 UTC
Wind: from the NNW (330 degrees) at 17 MPH (15 KT) gusting to 29 MPH (25 KT):0
Visibility: 7 mile(s):0
Sky conditions: overcast
Weather: light snow
Temperature: 32.9 F (0.5 C)
Windchill: 21 F (-6 C):1
Dew Point: 27.9 F (-2.3 C)
Relative Humidity: 81%
Pressure (altimeter): 29.76 in. Hg (1007 hPa)
ob: KOCW 291115Z AUTO 33015G25KT 7SM -SN BKN016 OVC023 01/M02 A2976 RMK AO2 T00051023
cycle: 11

Station Type Date Time Source
KOCW TAF UTC NOAA

Error!

Example: see airport list